Time;durP1;ratioP1;P1;durP2;ratioP2;P2;SDS_P1;SDS_P2;PMS_P1;PMS_P2;Temp;Humidity;BMP_temperature;BMP_pressure;BME280_temperature;BME280_humidity;BME280_pressure;Samples;Min_cycle;Max_cycle;Signal;HPM_P1;HPM_P2
2023/05/05 00:01:03;;;;;;;6.15;3.97;;;13.60;91.40;;;;;;5090295;28;20239;-75
2023/05/05 00:03:33;;;;;;;7.13;3.90;;;13.60;91.40;;;;;;5092040;28;20315;-76
2023/05/05 00:06:01;;;;;;;5.75;3.80;;;13.60;91.50;;;;;;5092390;28;20314;-75
2023/05/05 00:08:28;;;;;;;8.40;3.55;;;13.50;91.50;;;;;;5093595;28;20242;-76
2023/05/05 00:10:56;;;;;;;7.33;3.77;;;13.50;91.60;;;;;;5092915;28;20219;-75
2023/05/05 00:13:24;;;;;;;6.00;3.90;;;13.50;91.70;;;;;;5093201;28;20489;-76
2023/05/05 00:15:52;;;;;;;3.85;3.40;;;13.50;91.70;;;;;;5083123;28;20231;-75
2023/05/05 00:18:20;;;;;;;8.98;3.75;;;13.40;91.70;;;;;;5092345;28;20632;-74
2023/05/05 00:20:47;;;;;;;5.47;3.37;;;13.40;91.80;;;;;;5092591;28;20565;-75
2023/05/05 00:23:16;;;;;;;4.70;3.50;;;13.40;91.90;;;;;;5092822;28;20449;-77
2023/05/05 00:25:43;;;;;;;6.47;3.40;;;13.40;91.90;;;;;;5093323;28;21031;-76
2023/05/05 00:28:19;;;;;;;8.00;4.03;;;13.30;91.90;;;;;;5064695;28;20677;-76
2023/05/05 00:30:46;;;;;;;3.63;3.28;;;13.30;92.10;;;;;;5092978;28;20223;-77
2023/05/05 00:33:16;;;;;;;6.18;3.90;;;13.30;92.10;;;;;;5092894;28;20231;-76
2023/05/05 00:35:45;;;;;;;5.18;3.72;;;13.30;92.20;;;;;;5092541;28;20227;-76
2023/05/05 00:38:13;;;;;;;5.68;3.72;;;13.20;92.30;;;;;;5086479;28;20220;-76
2023/05/05 00:40:41;;;;;;;6.32;3.30;;;13.20;92.40;;;;;;5072890;28;20228;-76
2023/05/05 00:43:08;;;;;;;7.47;3.00;;;13.20;92.50;;;;;;5072279;28;20289;-77
2023/05/05 00:45:40;;;;;;;6.25;3.47;;;13.20;92.50;;;;;;5088606;28;20284;-76
2023/05/05 00:48:08;;;;;;;6.57;3.83;;;13.20;92.50;;;;;;5096340;28;20314;-77
2023/05/05 00:50:35;;;;;;;5.38;3.28;;;13.20;92.60;;;;;;5072319;28;20543;-77
2023/05/05 00:53:05;;;;;;;6.75;3.70;;;13.20;92.50;;;;;;5093424;28;20254;-76
2023/05/05 00:55:33;;;;;;;4.85;4.10;;;13.20;92.60;;;;;;5096660;28;20606;-75
2023/05/05 00:58:03;;;;;;;5.20;3.50;;;13.20;92.60;;;;;;5094644;28;20236;-77
2023/05/05 01:00:34;;;;;;;6.13;4.50;;;13.30;92.70;;;;;;5088256;28;20288;-76
2023/05/05 01:03:02;;;;;;;5.45;3.72;;;13.30;93.00;;;;;;5097027;28;20219;-77
2023/05/05 01:05:42;;;;;;;4.10;3.53;;;13.20;92.60;;;;;;5094984;28;20317;-76
2023/05/05 01:08:25;;;;;;;7.50;4.15;;;13.20;92.60;;;;;;5096741;28;20233;-77
2023/05/05 01:10:59;;;;;;;7.18;3.60;;;13.20;92.70;;;;;;5097059;28;20218;-78
2023/05/05 01:13:35;;;;;;;6.00;4.28;;;13.20;92.80;;;;;;5097009;28;20223;-78
2023/05/05 01:16:11;;;;;;;4.55;3.10;;;13.20;92.80;;;;;;5095888;28;20230;-77
2023/05/05 01:18:45;;;;;;;5.30;3.47;;;13.20;92.90;;;;;;5085554;28;20242;-76
2023/05/05 01:21:16;;;;;;;4.75;3.45;;;13.20;92.90;;;;;;5095481;28;20226;-76
2023/05/05 01:24:10;;;;;;;7.32;3.45;;;13.20;92.90;;;;;;5096596;28;20276;-77
2023/05/05 01:27:17;;;;;;;3.97;3.17;;;13.10;92.90;;;;;;5096970;28;20232;-76
2023/05/05 01:30:05;;;;;;;7.22;3.80;;;13.10;93.00;;;;;;5085929;28;20288;-77
2023/05/05 01:32:38;;;;;;;6.72;3.50;;;13.10;93.00;;;;;;5077170;28;20223;-76
2023/05/05 01:35:13;;;;;;;3.78;3.45;;;13.10;93.10;;;;;;5075498;28;20335;-76
2023/05/05 01:37:47;;;;;;;6.63;3.58;;;13.00;93.10;;;;;;5076035;28;20618;-75
2023/05/05 01:40:17;;;;;;;7.35;3.47;;;13.00;93.10;;;;;;5075926;28;20223;-76
2023/05/05 01:42:45;;;;;;;3.95;3.65;;;13.00;93.20;;;;;;5079988;28;20223;-76
2023/05/05 01:45:21;;;;;;;4.38;3.30;;;13.00;93.20;;;;;;5095367;28;20231;-76
2023/05/05 01:47:52;;;;;;;5.72;3.33;;;13.00;93.30;;;;;;5096354;28;20223;-75
2023/05/05 01:50:20;;;;;;;5.28;3.20;;;13.00;93.40;;;;;;5095265;28;20597;-76
2023/05/05 01:52:49;;;;;;;5.05;3.55;;;13.00;93.40;;;;;;5095059;28;20227;-76
2023/05/05 01:55:19;;;;;;;4.55;3.40;;;13.00;93.40;;;;;;5095504;28;20594;-75
2023/05/05 01:57:47;;;;;;;4.47;3.03;;;13.00;93.30;;;;;;5096403;28;20223;-76
2023/05/05 02:00:16;;;;;;;3.35;3.03;;;13.00;93.40;;;;;;5095654;28;20259;-76
2023/05/05 02:02:46;;;;;;;5.60;3.10;;;12.90;93.30;;;;;;5095346;28;20350;-76
2023/05/05 02:05:18;;;;;;;9.77;4.20;;;12.90;93.40;;;;;;5095064;28;20227;-76
2023/05/05 02:07:46;;;;;;;7.03;3.67;;;12.90;93.50;;;;;;5084945;28;20227;-76
2023/05/05 02:10:14;;;;;;;3.85;2.90;;;12.80;93.50;;;;;;5094013;28;20281;-76
2023/05/05 02:12:43;;;;;;;3.75;3.45;;;12.80;93.50;;;;;;5094241;28;20219;-76
2023/05/05 02:15:11;;;;;;;4.45;3.38;;;12.80;93.60;;;;;;5094581;28;20318;-76
2023/05/05 02:17:43;;;;;;;4.70;3.50;;;12.70;93.70;;;;;;5095427;28;20230;-76
2023/05/05 02:20:14;;;;;;;10.40;4.25;;;12.70;93.70;;;;;;5094471;28;20219;-76
2023/05/05 02:22:43;;;;;;;4.55;3.65;;;12.60;93.90;;;;;;5095377;28;20680;-77
2023/05/05 02:25:10;;;;;;;6.05;3.47;;;12.60;94.00;;;;;;5094550;28;20231;-76
2023/05/05 02:27:40;;;;;;;7.65;4.00;;;12.60;94.10;;;;;;5095055;28;20235;-75
2023/05/05 02:30:18;;;;;;;5.18;3.33;;;12.60;94.10;;;;;;5094347;28;20730;-76
2023/05/05 02:32:52;;;;;;;7.78;4.32;;;12.60;94.20;;;;;;5095015;28;20226;-76
2023/05/05 02:35:21;;;;;;;4.55;3.75;;;12.60;94.20;;;;;;5094409;28;20620;-76
2023/05/05 02:37:58;;;;;;;5.13;3.55;;;12.50;94.20;;;;;;5095259;28;20300;-76
2023/05/05 02:40:28;;;;;;;3.95;3.60;;;12.60;94.30;;;;;;5094298;28;20215;-76
2023/05/05 02:42:57;;;;;;;4.18;3.70;;;12.60;94.20;;;;;;5088362;28;20216;-77
2023/05/05 02:45:25;;;;;;;6.55;3.78;;;12.60;94.20;;;;;;5063122;28;20236;-77
2023/05/05 02:47:52;;;;;;;6.95;4.22;;;12.60;94.10;;;;;;5074271;28;20723;-76
2023/05/05 02:50:19;;;;;;;4.75;4.22;;;12.70;94.00;;;;;;5073192;28;20243;-76
2023/05/05 02:52:47;;;;;;;6.72;4.32;;;12.60;94.10;;;;;;5094473;28;20228;-76
2023/05/05 02:55:15;;;;;;;7.85;3.88;;;12.60;94.10;;;;;;5093490;28;20700;-75
2023/05/05 02:58:12;;;;;;;8.57;4.20;;;12.60;94.10;;;;;;5094041;28;20614;-76
2023/05/05 03:00:47;;;;;;;5.95;4.15;;;12.50;94.10;;;;;;5092997;28;20238;-76
2023/05/05 03:03:22;;;;;;;6.50;4.18;;;12.50;94.30;;;;;;5093665;28;20234;-76
2023/05/05 03:05:54;;;;;;;5.35;3.60;;;12.50;94.30;;;;;;5093658;28;21014;-76
2023/05/05 03:08:29;;;;;;;4.93;4.20;;;12.50;94.40;;;;;;5094091;28;20276;-76
2023/05/05 03:11:01;;;;;;;5.75;4.13;;;12.50;94.40;;;;;;5093809;28;20223;-75
2023/05/05 03:13:29;;;;;;;4.70;4.00;;;12.50;94.40;;;;;;5094000;28;20661;-76
2023/05/05 03:15:57;;;;;;;4.30;3.78;;;12.50;94.40;;;;;;5093496;28;20319;-77
2023/05/05 03:18:27;;;;;;;7.80;4.65;;;12.50;94.40;;;;;;5094442;28;20570;-77
2023/05/05 03:20:54;;;;;;;7.10;4.57;;;12.40;94.40;;;;;;5093269;28;20304;-77
2023/05/05 03:23:21;;;;;;;7.22;5.00;;;12.40;94.40;;;;;;5085083;28;20227;-76
2023/05/05 03:26:01;;;;;;;5.10;3.40;;;12.40;94.50;;;;;;5094011;28;20235;-77
2023/05/05 03:28:29;;;;;;;9.05;4.18;;;12.40;94.50;;;;;;5094315;28;20652;-76
2023/05/05 03:30:56;;;;;;;5.95;3.63;;;12.40;94.50;;;;;;5093144;28;20234;-76
2023/05/05 03:33:23;;;;;;;4.88;3.72;;;12.40;94.50;;;;;;5094150;28;20337;-76
2023/05/05 03:35:50;;;;;;;9.98;4.70;;;12.40;94.50;;;;;;5093916;28;20746;-76
2023/05/05 03:38:17;;;;;;;5.13;4.50;;;12.40;94.40;;;;;;5094082;28;20231;-76
2023/05/05 03:40:44;;;;;;;6.50;3.85;;;12.40;94.40;;;;;;5083448;28;20227;-75
2023/05/05 03:43:12;;;;;;;5.75;3.75;;;12.40;94.40;;;;;;5094038;28;20227;-77
2023/05/05 03:45:40;;;;;;;7.75;3.70;;;12.40;94.40;;;;;;5093569;28;20278;-77
2023/05/05 03:48:08;;;;;;;4.70;3.72;;;12.40;94.40;;;;;;5085772;28;20246;-76
2023/05/05 03:50:41;;;;;;;4.38;3.97;;;12.40;94.40;;;;;;5085027;28;20227;-77
2023/05/05 03:53:08;;;;;;;6.72;4.30;;;12.40;94.30;;;;;;5081937;28;20223;-76
2023/05/05 03:55:35;;;;;;;5.20;3.85;;;12.40;94.30;;;;;;5093800;28;20284;-76
2023/05/05 03:58:02;;;;;;;6.32;3.72;;;12.50;94.40;;;;;;5093417;28;20223;-76
2023/05/05 04:00:29;;;;;;;12.30;5.13;;;12.40;94.30;;;;;;5093659;28;20224;-76
2023/05/05 04:02:58;;;;;;;6.68;3.60;;;12.50;94.40;;;;;;5093488;28;20227;-76
2023/05/05 04:05:25;;;;;;;8.95;5.00;;;12.50;94.30;;;;;;5093436;28;20285;-77
2023/05/05 04:07:52;;;;;;;5.68;4.55;;;12.40;94.30;;;;;;5092783;28;20222;-77
2023/05/05 04:10:19;;;;;;;7.95;4.53;;;12.50;94.30;;;;;;5092993;28;20250;-76
2023/05/05 04:12:46;;;;;;;9.02;4.43;;;12.50;94.20;;;;;;5092989;28;20272;-76
2023/05/05 04:15:13;;;;;;;3.60;3.13;;;12.50;94.30;;;;;;5092543;28;20223;-76
2023/05/05 04:17:40;;;;;;;8.05;4.10;;;12.50;94.30;;;;;;5093076;28;20345;-77
2023/05/05 04:20:09;;;;;;;7.18;4.80;;;12.50;94.30;;;;;;5091877;28;20222;-74
2023/05/05 04:22:37;;;;;;;4.50;3.65;;;12.50;94.60;;;;;;5093351;28;20219;-76
2023/05/05 04:25:04;;;;;;;6.07;3.70;;;12.50;94.20;;;;;;5092711;28;20689;-74
2023/05/05 04:27:31;;;;;;;8.70;5.03;;;12.50;94.20;;;;;;5093101;28;20219;-77
2023/05/05 04:29:58;;;;;;;7.47;4.30;;;12.50;94.20;;;;;;5092491;28;20231;-76
2023/05/05 04:32:25;;;;;;;4.03;3.70;;;12.50;94.40;;;;;;5092874;28;20227;-77
2023/05/05 04:34:53;;;;;;;4.90;3.45;;;12.40;94.20;;;;;;5092615;28;20345;-76
2023/05/05 04:37:21;;;;;;;4.72;3.58;;;12.30;94.10;;;;;;5082975;28;20272;-76
2023/05/05 04:39:51;;;;;;;6.70;4.05;;;12.40;94.20;;;;;;5093043;28;20224;-77
2023/05/05 04:42:18;;;;;;;4.57;3.63;;;12.40;94.20;;;;;;5091689;28;20230;-76
2023/05/05 04:44:48;;;;;;;6.28;4.30;;;12.40;94.20;;;;;;5093109;28;20231;-77
2023/05/05 04:47:15;;;;;;;8.35;4.60;;;12.40;94.30;;;;;;5092369;28;20234;-77
2023/05/05 04:49:43;;;;;;;7.70;4.38;;;12.30;94.20;;;;;;5092526;28;20288;-76
2023/05/05 04:52:12;;;;;;;9.52;3.72;;;12.30;94.30;;;;;;5092281;28;20216;-76
2023/05/05 04:54:41;;;;;;;9.65;5.47;;;12.40;94.30;;;;;;5092465;28;20223;-76
2023/05/05 04:57:08;;;;;;;8.68;4.15;;;12.40;94.20;;;;;;5091957;28;20665;-78
2023/05/05 04:59:35;;;;;;;5.70;4.57;;;12.40;94.30;;;;;;5092859;28;20219;-78
2023/05/05 05:02:02;;;;;;;7.93;4.15;;;12.40;94.30;;;;;;5092415;28;20250;-78
2023/05/05 05:04:38;;;;;;;6.90;3.65;;;12.40;94.20;;;;;;5093871;28;20669;-77
2023/05/05 05:07:05;;;;;;;11.00;4.20;;;12.40;94.20;;;;;;5095918;28;20257;-77
2023/05/05 05:09:32;;;;;;;13.40;5.10;;;12.50;94.20;;;;;;5093204;28;20243;-77
2023/05/05 05:12:02;;;;;;;7.97;4.13;;;12.50;94.30;;;;;;5092314;28;20568;-76
2023/05/05 05:14:29;;;;;;;7.72;4.18;;;12.50;94.30;;;;;;5092260;28;20298;-76
2023/05/05 05:16:56;;;;;;;5.22;4.32;;;12.50;94.60;;;;;;5092982;28;20296;-77
2023/05/05 05:19:23;;;;;;;5.63;4.45;;;12.50;94.30;;;;;;5091676;28;20243;-76
2023/05/05 05:21:50;;;;;;;7.10;4.60;;;12.60;94.30;;;;;;5092556;28;20227;-77
2023/05/05 05:24:17;;;;;;;6.88;4.38;;;12.70;94.20;;;;;;5092239;28;20227;-77
2023/05/05 05:26:46;;;;;;;7.30;5.45;;;12.70;94.10;;;;;;5091679;28;20599;-76
2023/05/05 05:29:15;;;;;;;11.05;5.97;;;12.70;94.10;;;;;;5092273;28;20226;-76
2023/05/05 05:31:43;;;;;;;8.48;4.70;;;12.80;94.00;;;;;;5095597;28;20699;-76
2023/05/05 05:34:10;;;;;;;6.43;4.20;;;12.80;93.90;;;;;;5095743;28;20646;-76
2023/05/05 05:36:37;;;;;;;12.35;4.55;;;12.90;93.90;;;;;;5095977;28;20253;-77
2023/05/05 05:39:04;;;;;;;8.45;5.00;;;12.90;93.90;;;;;;5095785;28;20211;-77
2023/05/05 05:41:31;;;;;;;8.00;5.80;;;13.00;93.80;;;;;;5096554;28;20215;-77
2023/05/05 05:43:58;;;;;;;13.85;5.50;;;13.10;93.80;;;;;;5095629;28;20661;-77
2023/05/05 05:46:27;;;;;;;8.40;4.80;;;13.10;93.40;;;;;;5095434;28;20241;-76
2023/05/05 05:48:53;;;;;;;7.57;4.93;;;13.10;93.40;;;;;;5094838;28;20235;-77
2023/05/05 05:51:21;;;;;;;13.23;5.78;;;13.20;93.40;;;;;;5095822;28;20562;-77
2023/05/05 05:53:48;;;;;;;12.07;5.40;;;13.20;93.10;;;;;;5095459;28;20283;-77
2023/05/05 05:56:15;;;;;;;7.80;4.32;;;13.30;92.90;;;;;;5095893;28;20312;-77
2023/05/05 05:58:42;;;;;;;8.95;5.45;;;13.30;92.40;;;;;;5086142;28;20258;-77
2023/05/05 06:01:09;;;;;;;11.07;5.05;;;13.30;92.10;;;;;;5095602;28;20633;-77
2023/05/05 06:03:37;;;;;;;8.60;6.03;;;13.40;91.70;;;;;;5095907;28;20254;-76
2023/05/05 06:06:07;;;;;;;5.05;4.22;;;13.50;91.70;;;;;;5094850;28;20231;-76
2023/05/05 06:08:35;;;;;;;5.10;4.63;;;13.50;91.60;;;;;;5095833;28;20231;-77
2023/05/05 06:11:02;;;;;;;5.27;4.07;;;13.60;91.60;;;;;;5094234;28;20814;-76
2023/05/05 06:13:28;;;;;;;8.13;4.40;;;13.80;91.30;;;;;;5095113;28;20466;-77
2023/05/05 06:15:55;;;;;;;11.13;5.53;;;13.90;90.40;;;;;;5095259;28;20534;-77
2023/05/05 06:18:22;;;;;;;9.47;5.50;;;14.00;90.30;;;;;;5096129;28;20527;-76
2023/05/05 06:20:51;;;;;;;10.70;5.73;;;14.00;90.10;;;;;;5094968;28;20532;-75
2023/05/05 06:23:21;;;;;;;5.57;4.20;;;14.00;89.80;;;;;;5095034;28;20469;-76
2023/05/05 06:25:48;;;;;;;6.63;4.60;;;14.10;90.00;;;;;;5094699;28;20470;-76
2023/05/05 06:28:15;;;;;;;7.90;4.93;;;14.10;89.20;;;;;;5095045;28;20462;-76
2023/05/05 06:30:43;;;;;;;10.95;5.35;;;14.10;89.30;;;;;;5094942;28;20230;-76
2023/05/05 06:33:12;;;;;;;13.10;5.38;;;14.00;89.00;;;;;;5094409;28;20224;-76
2023/05/05 06:35:39;;;;;;;7.90;5.50;;;14.00;89.30;;;;;;5095204;28;20310;-76
2023/05/05 06:38:09;;;;;;;6.90;5.13;;;14.00;89.80;;;;;;5094413;28;20489;-76
2023/05/05 06:40:36;;;;;;;5.53;4.70;;;14.00;89.20;;;;;;5094929;28;20254;-75
2023/05/05 06:43:04;;;;;;;8.07;4.78;;;14.10;89.10;;;;;;5093840;28;20527;-76
2023/05/05 06:45:31;;;;;;;8.15;5.32;;;14.10;89.10;;;;;;5094867;28;20288;-76
2023/05/05 06:47:58;;;;;;;8.93;4.37;;;14.20;88.90;;;;;;5094564;28;20692;-77
2023/05/05 06:50:25;;;;;;;5.43;4.80;;;14.30;88.70;;;;;;5085713;28;20476;-76
2023/05/05 06:52:52;;;;;;;6.27;5.00;;;14.40;88.30;;;;;;5094448;28;21008;-76
2023/05/05 06:55:22;;;;;;;5.50;4.67;;;14.50;88.00;;;;;;5094848;28;20465;-76
2023/05/05 06:57:49;;;;;;;6.97;5.47;;;14.60;87.90;;;;;;5086373;28;20559;-74
2023/05/05 07:00:21;;;;;;;7.60;5.40;;;14.50;87.00;;;;;;5094446;28;20449;-76
2023/05/05 07:02:48;;;;;;;6.93;5.03;;;14.70;87.70;;;;;;5095611;28;20465;-77
2023/05/05 07:05:15;;;;;;;8.90;4.93;;;14.80;86.80;;;;;;5095715;28;20473;-77
2023/05/05 07:07:51;;;;;;;5.50;4.90;;;14.90;87.30;;;;;;5094900;28;20465;-78
2023/05/05 07:10:20;;;;;;;14.03;6.67;;;15.20;86.80;;;;;;5094536;28;20954;-77
2023/05/05 07:12:47;;;;;;;8.30;5.60;;;15.30;85.70;;;;;;5095853;28;20465;-77
2023/05/05 07:15:15;;;;;;;28.57;6.57;;;15.50;85.20;;;;;;5081381;28;20480;-77
2023/05/05 07:17:42;;;;;;;5.40;4.50;;;15.60;84.70;;;;;;5097186;28;20473;-76
2023/05/05 07:20:16;;;;;;;9.87;4.30;;;15.60;83.70;;;;;;5097217;28;20462;-77
2023/05/05 07:22:43;;;;;;;9.23;4.80;;;15.60;83.90;;;;;;5096442;28;20481;-75
2023/05/05 07:25:11;;;;;;;10.50;4.77;;;15.70;84.20;;;;;;5096407;28;20542;-76
2023/05/05 07:27:39;;;;;;;10.77;5.23;;;15.70;84.30;;;;;;5094199;28;20489;-76
2023/05/05 07:30:07;;;;;;;9.50;5.20;;;15.80;83.20;;;;;;5084192;28;20477;-76
2023/05/05 07:32:37;;;;;;;8.60;4.40;;;15.80;82.80;;;;;;5096989;28;20480;-76
2023/05/05 07:35:06;;;;;;;9.40;4.37;;;15.90;82.10;;;;;;5100515;28;20469;-76
2023/05/05 07:37:35;;;;;;;9.17;4.90;;;15.90;82.10;;;;;;5095611;28;20526;-77
2023/05/05 07:40:10;;;;;;;8.47;5.40;;;15.90;81.70;;;;;;5094042;28;20870;-77
2023/05/05 07:42:37;;;;;;;9.97;5.17;;;16.00;81.90;;;;;;5094296;28;20481;-78
2023/05/05 07:45:06;;;;;;;6.37;5.17;;;15.90;81.40;;;;;;5094142;28;20963;-77
2023/05/05 07:47:33;;;;;;;8.13;4.83;;;15.90;81.30;;;;;;5095746;28;20471;-77
2023/05/05 07:50:03;;;;;;;13.13;5.97;;;16.00;81.80;;;;;;5086211;28;20470;-75
2023/05/05 07:52:32;;;;;;;7.40;4.40;;;16.10;81.70;;;;;;5094725;28;20522;-76
2023/05/05 07:54:59;;;;;;;9.37;5.43;;;16.20;81.50;;;;;;5096386;28;20493;-75
2023/05/05 07:57:26;;;;;;;6.93;4.60;;;16.30;81.50;;;;;;5095610;28;20509;-77
2023/05/05 07:59:53;;;;;;;6.13;4.73;;;16.40;81.40;;;;;;5094479;28;20465;-76
2023/05/05 08:02:22;;;;;;;8.83;4.47;;;16.60;81.60;;;;;;5094209;28;20475;-76
2023/05/05 08:04:49;;;;;;;12.27;4.83;;;16.60;81.80;;;;;;5094582;28;20465;-76
2023/05/05 08:07:16;;;;;;;5.40;4.20;;;16.70;81.50;;;;;;5094345;28;20497;-76
2023/05/05 08:09:44;;;;;;;6.80;4.40;;;16.80;81.10;;;;;;5093412;28;20807;-76
2023/05/05 08:12:11;;;;;;;14.60;5.03;;;16.80;80.80;;;;;;5092520;28;20465;-76
2023/05/05 08:14:41;;;;;;;13.57;4.47;;;16.90;80.80;;;;;;5094224;28;20472;-75
2023/05/05 08:17:09;;;;;;;8.70;5.00;;;16.90;81.00;;;;;;5093239;28;20889;-75
2023/05/05 08:19:37;;;;;;;12.40;4.87;;;17.00;81.10;;;;;;5093499;28;20473;-76
2023/05/05 08:22:04;;;;;;;7.27;5.37;;;16.90;80.70;;;;;;5094425;28;20792;-75
2023/05/05 08:24:31;;;;;;;11.27;4.90;;;17.00;81.20;;;;;;5094952;28;20457;-76
2023/05/05 08:26:59;;;;;;;9.30;5.20;;;17.10;81.30;;;;;;5092088;28;20469;-75
2023/05/05 08:29:26;;;;;;;9.67;5.20;;;17.20;81.10;;;;;;5092772;28;20538;-76
2023/05/05 08:31:54;;;;;;;8.73;5.63;;;17.20;79.60;;;;;;5082832;28;20831;-76
2023/05/05 08:34:21;;;;;;;8.13;4.70;;;17.30;79.00;;;;;;5082007;28;20465;-76
2023/05/05 08:36:49;;;;;;;8.60;5.00;;;17.30;78.90;;;;;;5081702;28;20492;-76
2023/05/05 08:39:17;;;;;;;5.83;5.20;;;17.30;79.20;;;;;;5092575;28;20465;-78
2023/05/05 08:41:44;;;;;;;7.23;4.70;;;17.40;79.60;;;;;;5092915;28;20461;-76
2023/05/05 08:44:11;;;;;;;6.50;4.57;;;17.30;78.80;;;;;;5093417;28;20489;-75
2023/05/05 08:46:39;;;;;;;7.77;5.77;;;17.40;79.30;;;;;;5092340;28;20469;-76
2023/05/05 08:49:15;;;;;;;8.37;5.83;;;17.40;79.30;;;;;;5091386;28;20544;-76
2023/05/05 08:51:44;;;;;;;10.30;5.10;;;17.50;79.20;;;;;;5093351;28;20452;-76
2023/05/05 08:54:20;;;;;;;10.03;5.10;;;17.50;78.80;;;;;;5091060;28;20469;-76
2023/05/05 08:56:49;;;;;;;8.00;5.70;;;17.50;79.00;;;;;;5091836;28;20546;-77
2023/05/05 08:59:24;;;;;;;8.00;5.17;;;17.50;78.70;;;;;;5092150;28;20771;-77
2023/05/05 09:01:53;;;;;;;5.77;5.03;;;17.60;78.50;;;;;;5092930;28;20866;-77
2023/05/05 09:04:20;;;;;;;5.90;5.27;;;17.80;79.10;;;;;;5092960;28;20824;-76
2023/05/05 09:06:48;;;;;;;6.07;4.80;;;17.80;78.60;;;;;;5096118;28;20471;-76
2023/05/05 09:09:17;;;;;;;7.30;6.20;;;17.90;78.80;;;;;;5097058;28;20588;-76
2023/05/05 09:11:45;;;;;;;11.63;5.53;;;17.90;78.90;;;;;;5096053;28;20523;-74
2023/05/05 09:14:13;;;;;;;7.40;4.83;;;18.00;78.70;;;;;;5096506;28;20875;-76
2023/05/05 09:16:43;;;;;;;5.43;4.43;;;18.10;78.80;;;;;;5095787;28;20541;-76
2023/05/05 09:19:10;;;;;;;6.70;5.37;;;18.10;78.30;;;;;;5096220;28;20461;-76
2023/05/05 09:21:46;;;;;;;7.40;5.40;;;18.10;78.80;;;;;;5095612;28;20795;-75
2023/05/05 09:24:14;;;;;;;8.03;5.83;;;18.20;78.90;;;;;;5096655;28;20512;-75
2023/05/05 09:26:44;;;;;;;7.43;4.80;;;18.20;78.50;;;;;;5085315;28;20477;-76
2023/05/05 09:29:17;;;;;;;7.40;4.93;;;18.30;78.20;;;;;;5095812;28;20461;-76
2023/05/05 09:31:47;;;;;;;6.17;4.93;;;18.40;77.80;;;;;;5095052;28;20518;-76
2023/05/05 09:34:15;;;;;;;6.93;5.80;;;18.40;77.70;;;;;;5096270;28;20528;-76
2023/05/05 09:36:46;;;;;;;7.30;5.53;;;18.30;77.60;;;;;;5086558;28;20477;-76
2023/05/05 09:39:18;;;;;;;9.97;4.63;;;18.30;77.60;;;;;;5096056;28;20457;-76
2023/05/05 09:41:47;;;;;;;10.37;4.70;;;18.40;78.10;;;;;;5095897;28;20523;-76
2023/05/05 09:44:16;;;;;;;9.63;4.20;;;18.50;78.40;;;;;;5096540;28;20473;-77
2023/05/05 09:46:51;;;;;;;9.60;4.43;;;18.50;78.30;;;;;;5092700;28;20500;-77
2023/05/05 09:49:22;;;;;;;5.50;4.60;;;18.60;78.30;;;;;;5095257;28;20476;-76
2023/05/05 09:51:52;;;;;;;7.30;4.60;;;18.60;78.10;;;;;;5095952;28;20814;-75
2023/05/05 09:54:27;;;;;;;7.97;4.80;;;18.70;77.40;;;;;;5096072;28;20469;-77
2023/05/05 09:56:56;;;;;;;9.63;4.70;;;18.70;77.00;;;;;;5085654;28;20461;-76
2023/05/05 09:59:24;;;;;;;8.67;4.40;;;18.60;77.00;;;;;;5096034;28;20798;-76
2023/05/05 10:01:51;;;;;;;5.90;3.90;;;18.70;77.10;;;;;;5095094;28;20465;-74
2023/05/05 10:04:26;;;;;;;5.20;4.70;;;18.80;76.90;;;;;;5095906;28;20472;-75
2023/05/05 10:06:56;;;;;;;12.50;5.00;;;18.80;75.90;;;;;;5094345;28;20568;-75
2023/05/05 10:09:24;;;;;;;5.13;3.80;;;18.80;75.20;;;;;;5094963;28;20525;-75
2023/05/05 10:11:55;;;;;;;8.50;4.17;;;18.90;75.50;;;;;;5094118;28;20461;-75
2023/05/05 10:14:25;;;;;;;7.33;3.97;;;19.00;75.20;;;;;;5094856;28;20501;-76
2023/05/05 10:16:54;;;;;;;4.70;3.73;;;19.00;75.10;;;;;;5093684;28;20531;-75
2023/05/05 10:19:23;;;;;;;8.23;4.67;;;19.10;75.00;;;;;;5095364;28;20880;-76
2023/05/05 10:21:51;;;;;;;8.70;4.03;;;19.10;74.50;;;;;;5094883;28;20470;-76
2023/05/05 10:24:28;;;;;;;8.30;5.03;;;19.10;74.00;;;;;;5095153;28;20484;-76
2023/05/05 10:26:58;;;;;;;9.23;5.30;;;19.10;74.10;;;;;;5094796;28;20908;-75
2023/05/05 10:29:33;;;;;;;8.70;4.87;;;19.10;73.70;;;;;;5095116;28;20526;-76
2023/05/05 10:32:05;;;;;;;6.40;4.70;;;19.20;73.80;;;;;;5094371;28;20476;-75
2023/05/05 10:34:39;;;;;;;9.50;4.00;;;19.20;74.10;;;;;;5084511;28;20469;-76
2023/05/05 10:37:07;;;;;;;11.70;4.80;;;19.30;74.50;;;;;;5093876;28;20577;-76
2023/05/05 10:39:37;;;;;;;5.77;4.40;;;19.30;74.30;;;;;;5095020;28;20469;-76
2023/05/05 10:42:04;;;;;;;5.73;4.30;;;19.30;74.60;;;;;;5092220;28;20470;-76
2023/05/05 10:44:35;;;;;;;4.63;3.83;;;19.30;73.90;;;;;;5090810;28;20473;-76
2023/05/05 10:47:03;;;;;;;7.07;3.90;;;19.30;74.00;;;;;;5091344;28;20807;-75
2023/05/05 10:49:39;;;;;;;7.47;4.53;;;19.30;73.90;;;;;;5090986;28;20542;-75
2023/05/05 10:52:21;;;;;;;3.90;3.43;;;19.40;74.10;;;;;;5089835;28;20899;-75
2023/05/05 10:55:01;;;;;;;6.47;4.70;;;19.50;73.90;;;;;;5088082;28;20598;-75
2023/05/05 10:57:32;;;;;;;5.77;4.30;;;19.50;73.10;;;;;;5092621;28;21114;-76
2023/05/05 11:00:00;;;;;;;6.67;4.47;;;19.50;72.60;;;;;;5093267;28;20514;-75
2023/05/05 11:02:28;;;;;;;7.00;4.80;;;19.50;73.20;;;;;;5093658;28;20459;-75
2023/05/05 11:05:06;;;;;;;6.67;4.37;;;19.60;73.60;;;;;;5094523;28;20474;-76
2023/05/05 11:07:36;;;;;;;4.90;4.20;;;19.70;71.90;;;;;;5094450;28;20461;-75
2023/05/05 11:10:05;;;;;;;8.70;4.83;;;19.70;71.80;;;;;;5093720;28;20456;-75
2023/05/05 11:12:34;;;;;;;8.00;4.57;;;19.70;70.60;;;;;;5093472;28;20469;-74
2023/05/05 11:15:36;;;;;;;5.47;4.53;;;19.70;70.50;;;;;;5093889;28;20526;-76
2023/05/05 11:18:05;;;;;;;10.43;4.37;;;19.80;71.00;;;;;;5093070;28;20460;-76
2023/05/05 11:21:03;;;;;;;7.30;4.47;;;19.70;70.90;;;;;;5094969;28;20469;-76
2023/05/05 11:23:31;;;;;;;7.80;4.30;;;19.80;70.20;;;;;;5094160;28;20532;-76
2023/05/05 11:25:58;;;;;;;7.50;4.90;;;19.80;69.70;;;;;;5093916;28;20468;-76
2023/05/05 11:28:29;;;;;;;5.70;3.53;;;19.90;70.20;;;;;;5091974;28;20475;-77
2023/05/05 11:31:18;;;;;;;5.90;4.00;;;19.90;70.40;;;;;;5078083;28;20813;-77
2023/05/05 11:33:49;;;;;;;6.50;4.60;;;20.00;69.60;;;;;;5074800;28;20502;-76
2023/05/05 11:36:18;;;;;;;5.30;4.10;;;20.00;69.50;;;;;;5093894;28;20473;-75
2023/05/05 11:39:04;;;;;;;6.43;3.47;;;20.10;69.30;;;;;;5092135;28;20473;-76
2023/05/05 11:41:45;;;;;;;4.60;3.90;;;20.10;68.50;;;;;;5093212;28;20468;-76
2023/05/05 11:44:13;;;;;;;9.30;4.47;;;20.10;68.10;;;;;;5093767;28;20560;-75
2023/05/05 11:47:21;;;;;;;4.90;3.40;;;20.00;67.60;;;;;;5092543;28;20466;-75
2023/05/05 11:49:50;;;;;;;6.30;3.87;;;20.20;68.10;;;;;;5052314;28;20537;-75
2023/05/05 11:52:17;;;;;;;6.87;3.43;;;20.20;68.10;;;;;;5088074;28;20500;-76
2023/05/05 11:54:46;;;;;;;10.30;4.17;;;20.10;68.10;;;;;;5092636;28;20485;-76
2023/05/05 11:57:14;;;;;;;7.00;3.60;;;20.20;68.60;;;;;;5091508;28;20530;-75
2023/05/05 11:59:51;;;;;;;7.13;3.20;;;20.10;68.80;;;;;;5077852;28;20478;-74
2023/05/05 12:02:19;;;;;;;5.90;4.40;;;20.20;68.80;;;;;;5085645;28;20469;-75
2023/05/05 12:04:46;;;;;;;5.23;3.90;;;20.10;68.60;;;;;;5089449;28;20479;-75
2023/05/05 12:07:16;;;;;;;3.70;3.40;;;20.20;67.70;;;;;;5091382;28;20476;-75
2023/05/05 12:09:45;;;;;;;6.93;3.60;;;20.20;67.40;;;;;;5091585;28;20502;-75
2023/05/05 12:12:12;;;;;;;4.77;3.70;;;20.20;67.60;;;;;;5092248;28;20486;-75
2023/05/05 12:14:49;;;;;;;5.53;4.10;;;20.20;67.30;;;;;;5089650;28;20558;-74
2023/05/05 12:17:16;;;;;;;6.13;4.03;;;20.30;67.50;;;;;;5079089;28;20472;-75
2023/05/05 12:19:47;;;;;;;10.40;3.87;;;20.40;66.30;;;;;;5088150;28;20470;-76
2023/05/05 12:22:24;;;;;;;7.07;3.80;;;20.40;66.30;;;;;;5083529;28;20546;-74
2023/05/05 12:24:55;;;;;;;4.23;3.40;;;20.30;66.70;;;;;;5091537;28;20569;-75
2023/05/05 12:27:23;;;;;;;5.80;4.13;;;20.30;67.40;;;;;;5091176;28;20497;-75
2023/05/05 12:29:51;;;;;;;4.30;3.20;;;20.30;67.00;;;;;;5081414;28;20465;-74
2023/05/05 12:32:22;;;;;;;3.50;3.20;;;20.40;67.60;;;;;;5091936;28;20470;-75
2023/05/05 12:34:53;;;;;;;4.30;3.63;;;20.40;67.60;;;;;;5082827;28;20496;-75
2023/05/05 12:37:22;;;;;;;6.13;3.97;;;20.40;68.00;;;;;;5084637;28;20485;-74
2023/05/05 12:40:05;;;;;;;4.43;3.30;;;20.40;67.30;;;;;;5089208;28;20467;-75
2023/05/05 12:42:37;;;;;;;5.40;3.87;;;20.30;67.10;;;;;;5091130;28;20888;-75
2023/05/05 12:45:05;;;;;;;4.47;4.07;;;20.40;67.80;;;;;;5090268;28;20816;-76
2023/05/05 12:47:35;;;;;;;7.33;3.67;;;20.40;67.50;;;;;;5091099;28;20492;-76
2023/05/05 12:50:02;;;;;;;9.80;4.20;;;20.40;67.80;;;;;;5091271;28;20457;-76
2023/05/05 12:52:48;;;;;;;4.17;3.27;;;20.40;67.80;;;;;;5091533;28;20476;-76
2023/05/05 12:55:15;;;;;;;4.00;3.20;;;20.50;67.40;;;;;;5066987;28;20974;-76
2023/05/05 12:58:00;;;;;;;3.67;3.00;;;20.50;67.70;;;;;;5089149;28;20798;-76
2023/05/05 13:00:30;;;;;;;7.13;3.70;;;20.50;68.30;;;;;;5080306;28;20465;-76